sensor_id;sensor_type;location;lat;lon;timestamp;P1;durP1;ratioP1;P2;durP2;ratioP2
32445;SDS011;18899;50.748;7.102;2023-02-03T00:01:48;6.82;;;3.05;;
32445;SDS011;18899;50.748;7.102;2023-02-03T00:04:14;6.47;;;3.10;;
32445;SDS011;18899;50.748;7.102;2023-02-03T00:06:40;10.88;;;3.70;;
32445;SDS011;18899;50.748;7.102;2023-02-03T00:09:06;12.57;;;2.97;;
32445;SDS011;18899;50.748;7.102;2023-02-03T00:11:32;11.10;;;2.88;;
32445;SDS011;18899;50.748;7.102;2023-02-03T00:13:57;10.63;;;3.17;;
32445;SDS011;18899;50.748;7.102;2023-02-03T00:16:23;9.45;;;3.50;;
32445;SDS011;18899;50.748;7.102;2023-02-03T00:18:49;8.15;;;2.92;;
32445;SDS011;18899;50.748;7.102;2023-02-03T00:21:14;8.75;;;3.15;;
32445;SDS011;18899;50.748;7.102;2023-02-03T00:23:40;11.02;;;2.75;;
32445;SDS011;18899;50.748;7.102;2023-02-03T00:26:07;5.53;;;2.90;;
32445;SDS011;18899;50.748;7.102;2023-02-03T00:28:37;15.63;;;3.38;;
32445;SDS011;18899;50.748;7.102;2023-02-03T00:31:02;9.10;;;2.67;;
32445;SDS011;18899;50.748;7.102;2023-02-03T00:33:28;10.77;;;2.65;;
32445;SDS011;18899;50.748;7.102;2023-02-03T00:35:54;5.13;;;2.60;;
32445;SDS011;18899;50.748;7.102;2023-02-03T00:38:19;9.35;;;2.97;;
32445;SDS011;18899;50.748;7.102;2023-02-03T00:40:52;8.88;;;2.30;;
32445;SDS011;18899;50.748;7.102;2023-02-03T00:43:17;5.80;;;2.63;;
32445;SDS011;18899;50.748;7.102;2023-02-03T00:45:43;7.13;;;3.05;;
32445;SDS011;18899;50.748;7.102;2023-02-03T00:48:09;7.45;;;2.88;;
32445;SDS011;18899;50.748;7.102;2023-02-03T00:50:34;7.88;;;3.00;;
32445;SDS011;18899;50.748;7.102;2023-02-03T00:53:00;8.48;;;2.83;;
32445;SDS011;18899;50.748;7.102;2023-02-03T00:55:25;9.07;;;2.53;;
32445;SDS011;18899;50.748;7.102;2023-02-03T00:57:51;11.93;;;2.60;;
32445;SDS011;18899;50.748;7.102;2023-02-03T01:00:17;5.75;;;2.45;;
32445;SDS011;18899;50.748;7.102;2023-02-03T01:02:43;5.20;;;2.28;;
32445;SDS011;18899;50.748;7.102;2023-02-03T01:05:09;7.00;;;1.95;;
32445;SDS011;18899;50.748;7.102;2023-02-03T01:07:35;6.47;;;2.33;;
32445;SDS011;18899;50.748;7.102;2023-02-03T01:10:00;6.10;;;2.13;;
32445;SDS011;18899;50.748;7.102;2023-02-03T01:12:27;8.38;;;1.90;;
32445;SDS011;18899;50.748;7.102;2023-02-03T01:14:54;6.63;;;2.03;;
32445;SDS011;18899;50.748;7.102;2023-02-03T01:17:19;6.78;;;1.90;;
32445;SDS011;18899;50.748;7.102;2023-02-03T01:19:45;9.25;;;2.47;;
32445;SDS011;18899;50.748;7.102;2023-02-03T01:22:10;15.68;;;3.25;;
32445;SDS011;18899;50.748;7.102;2023-02-03T01:24:36;7.05;;;1.83;;
32445;SDS011;18899;50.748;7.102;2023-02-03T01:27:01;8.00;;;2.05;;
32445;SDS011;18899;50.748;7.102;2023-02-03T01:29:27;6.32;;;2.13;;
32445;SDS011;18899;50.748;7.102;2023-02-03T01:31:52;9.43;;;1.80;;
32445;SDS011;18899;50.748;7.102;2023-02-03T01:34:18;5.28;;;1.80;;
32445;SDS011;18899;50.748;7.102;2023-02-03T01:36:43;8.38;;;1.85;;
32445;SDS011;18899;50.748;7.102;2023-02-03T01:39:10;10.95;;;2.25;;
32445;SDS011;18899;50.748;7.102;2023-02-03T01:41:37;9.85;;;2.53;;
32445;SDS011;18899;50.748;7.102;2023-02-03T01:47:10;5.40;;;1.60;;
32445;SDS011;18899;50.748;7.102;2023-02-03T01:52:55;5.90;;;1.88;;
32445;SDS011;18899;50.748;7.102;2023-02-03T01:55:24;7.43;;;1.45;;
32445;SDS011;18899;50.748;7.102;2023-02-03T01:57:57;6.97;;;1.67;;
32445;SDS011;18899;50.748;7.102;2023-02-03T02:00:28;4.72;;;1.90;;
32445;SDS011;18899;50.748;7.102;2023-02-03T02:02:54;4.28;;;1.83;;
32445;SDS011;18899;50.748;7.102;2023-02-03T02:05:37;4.82;;;1.73;;
32445;SDS011;18899;50.748;7.102;2023-02-03T02:08:33;5.03;;;1.50;;
32445;SDS011;18899;50.748;7.102;2023-02-03T02:11:00;8.32;;;1.88;;
32445;SDS011;18899;50.748;7.102;2023-02-03T02:13:27;7.47;;;1.80;;
32445;SDS011;18899;50.748;7.102;2023-02-03T02:18:52;8.38;;;1.77;;
32445;SDS011;18899;50.748;7.102;2023-02-03T02:24:16;8.50;;;1.73;;
32445;SDS011;18899;50.748;7.102;2023-02-03T02:27:08;7.35;;;1.70;;
32445;SDS011;18899;50.748;7.102;2023-02-03T02:32:42;4.10;;;1.25;;
32445;SDS011;18899;50.748;7.102;2023-02-03T02:41:03;5.13;;;1.50;;
32445;SDS011;18899;50.748;7.102;2023-02-03T02:43:43;6.75;;;1.40;;
32445;SDS011;18899;50.748;7.102;2023-02-03T02:46:15;5.00;;;1.60;;
32445;SDS011;18899;50.748;7.102;2023-02-03T02:48:49;2.95;;;1.52;;
32445;SDS011;18899;50.748;7.102;2023-02-03T02:51:20;6.93;;;1.48;;
32445;SDS011;18899;50.748;7.102;2023-02-03T02:53:53;5.38;;;1.33;;
32445;SDS011;18899;50.748;7.102;2023-02-03T02:56:21;9.07;;;1.58;;
32445;SDS011;18899;50.748;7.102;2023-02-03T02:58:49;5.22;;;1.60;;
32445;SDS011;18899;50.748;7.102;2023-02-03T03:01:16;3.75;;;1.20;;
32445;SDS011;18899;50.748;7.102;2023-02-03T03:03:42;9.00;;;1.55;;
32445;SDS011;18899;50.748;7.102;2023-02-03T03:06:28;4.72;;;1.55;;
32445;SDS011;18899;50.748;7.102;2023-02-03T03:08:59;6.63;;;1.73;;
32445;SDS011;18899;50.748;7.102;2023-02-03T03:11:31;6.00;;;1.30;;
32445;SDS011;18899;50.748;7.102;2023-02-03T03:14:03;5.70;;;1.30;;
32445;SDS011;18899;50.748;7.102;2023-02-03T03:16:33;8.43;;;1.73;;
32445;SDS011;18899;50.748;7.102;2023-02-03T03:19:03;4.22;;;1.40;;
32445;SDS011;18899;50.748;7.102;2023-02-03T03:21:33;6.90;;;1.63;;
32445;SDS011;18899;50.748;7.102;2023-02-03T03:24:05;5.18;;;1.50;;
32445;SDS011;18899;50.748;7.102;2023-02-03T03:26:35;3.70;;;1.20;;
32445;SDS011;18899;50.748;7.102;2023-02-03T03:29:20;3.97;;;1.48;;
32445;SDS011;18899;50.748;7.102;2023-02-03T03:31:50;6.55;;;1.50;;
32445;SDS011;18899;50.748;7.102;2023-02-03T03:34:16;3.78;;;1.30;;
32445;SDS011;18899;50.748;7.102;2023-02-03T03:36:43;6.93;;;1.38;;
32445;SDS011;18899;50.748;7.102;2023-02-03T03:39:21;6.82;;;1.27;;
32445;SDS011;18899;50.748;7.102;2023-02-03T03:44:26;2.25;;;1.20;;
32445;SDS011;18899;50.748;7.102;2023-02-03T03:46:58;2.07;;;1.03;;
32445;SDS011;18899;50.748;7.102;2023-02-03T03:49:34;7.32;;;1.67;;
32445;SDS011;18899;50.748;7.102;2023-02-03T03:52:02;5.68;;;1.40;;
32445;SDS011;18899;50.748;7.102;2023-02-03T03:54:31;6.80;;;2.00;;
32445;SDS011;18899;50.748;7.102;2023-02-03T03:57:00;4.35;;;1.70;;
32445;SDS011;18899;50.748;7.102;2023-02-03T03:59:39;7.65;;;1.42;;
32445;SDS011;18899;50.748;7.102;2023-02-03T04:02:06;8.45;;;1.55;;
32445;SDS011;18899;50.748;7.102;2023-02-03T04:04:33;6.70;;;1.67;;
32445;SDS011;18899;50.748;7.102;2023-02-03T04:07:01;7.13;;;1.60;;
32445;SDS011;18899;50.748;7.102;2023-02-03T04:09:26;4.47;;;1.85;;
32445;SDS011;18899;50.748;7.102;2023-02-03T04:11:52;5.13;;;1.40;;
32445;SDS011;18899;50.748;7.102;2023-02-03T04:14:33;7.85;;;1.70;;
32445;SDS011;18899;50.748;7.102;2023-02-03T04:17:02;3.35;;;1.30;;
32445;SDS011;18899;50.748;7.102;2023-02-03T04:19:28;6.53;;;1.65;;
32445;SDS011;18899;50.748;7.102;2023-02-03T04:21:54;14.25;;;2.70;;
32445;SDS011;18899;50.748;7.102;2023-02-03T04:24:20;6.22;;;1.60;;
32445;SDS011;18899;50.748;7.102;2023-02-03T04:26:45;6.15;;;1.35;;
32445;SDS011;18899;50.748;7.102;2023-02-03T04:29:11;7.57;;;1.92;;
32445;SDS011;18899;50.748;7.102;2023-02-03T04:31:36;8.88;;;1.80;;
32445;SDS011;18899;50.748;7.102;2023-02-03T04:34:02;4.07;;;1.52;;
32445;SDS011;18899;50.748;7.102;2023-02-03T04:36:28;9.98;;;1.40;;
32445;SDS011;18899;50.748;7.102;2023-02-03T04:38:54;4.28;;;1.50;;
32445;SDS011;18899;50.748;7.102;2023-02-03T04:41:19;5.55;;;1.33;;
32445;SDS011;18899;50.748;7.102;2023-02-03T04:43:45;3.53;;;1.40;;
32445;SDS011;18899;50.748;7.102;2023-02-03T04:46:10;4.30;;;1.50;;
32445;SDS011;18899;50.748;7.102;2023-02-03T04:48:36;4.60;;;1.38;;
32445;SDS011;18899;50.748;7.102;2023-02-03T04:51:03;8.82;;;2.03;;
32445;SDS011;18899;50.748;7.102;2023-02-03T04:53:30;5.07;;;1.60;;
32445;SDS011;18899;50.748;7.102;2023-02-03T04:55:55;6.82;;;1.40;;
32445;SDS011;18899;50.748;7.102;2023-02-03T04:58:21;8.38;;;1.48;;
32445;SDS011;18899;50.748;7.102;2023-02-03T05:00:47;4.72;;;1.42;;
32445;SDS011;18899;50.748;7.102;2023-02-03T05:03:12;7.32;;;1.73;;
32445;SDS011;18899;50.748;7.102;2023-02-03T05:05:38;5.53;;;1.40;;
32445;SDS011;18899;50.748;7.102;2023-02-03T05:08:04;5.07;;;1.30;;
32445;SDS011;18899;50.748;7.102;2023-02-03T05:10:29;4.00;;;1.73;;
32445;SDS011;18899;50.748;7.102;2023-02-03T05:12:55;11.23;;;1.35;;
32445;SDS011;18899;50.748;7.102;2023-02-03T05:15:21;5.60;;;1.40;;
32445;SDS011;18899;50.748;7.102;2023-02-03T05:17:46;5.18;;;1.50;;
32445;SDS011;18899;50.748;7.102;2023-02-03T05:20:12;5.50;;;1.33;;
32445;SDS011;18899;50.748;7.102;2023-02-03T05:22:38;6.05;;;1.02;;
32445;SDS011;18899;50.748;7.102;2023-02-03T05:25:03;3.28;;;1.17;;
32445;SDS011;18899;50.748;7.102;2023-02-03T05:27:29;4.00;;;1.40;;
32445;SDS011;18899;50.748;7.102;2023-02-03T05:29:55;7.88;;;1.38;;
32445;SDS011;18899;50.748;7.102;2023-02-03T05:32:21;7.13;;;1.10;;
32445;SDS011;18899;50.748;7.102;2023-02-03T05:34:46;4.32;;;1.08;;
32445;SDS011;18899;50.748;7.102;2023-02-03T05:37:12;5.68;;;1.20;;
32445;SDS011;18899;50.748;7.102;2023-02-03T05:39:37;7.65;;;1.48;;
32445;SDS011;18899;50.748;7.102;2023-02-03T05:42:03;8.65;;;1.20;;
32445;SDS011;18899;50.748;7.102;2023-02-03T05:44:28;6.68;;;1.35;;
32445;SDS011;18899;50.748;7.102;2023-02-03T05:46:56;7.30;;;1.00;;
32445;SDS011;18899;50.748;7.102;2023-02-03T05:49:22;10.18;;;1.58;;
32445;SDS011;18899;50.748;7.102;2023-02-03T05:51:49;6.82;;;1.15;;
32445;SDS011;18899;50.748;7.102;2023-02-03T05:54:16;5.63;;;1.20;;
32445;SDS011;18899;50.748;7.102;2023-02-03T05:56:42;3.78;;;1.13;;
32445;SDS011;18899;50.748;7.102;2023-02-03T05:59:08;6.70;;;1.17;;
32445;SDS011;18899;50.748;7.102;2023-02-03T06:01:34;7.47;;;1.05;;
32445;SDS011;18899;50.748;7.102;2023-02-03T06:04:00;6.70;;;1.70;;
32445;SDS011;18899;50.748;7.102;2023-02-03T06:06:26;4.90;;;1.52;;
32445;SDS011;18899;50.748;7.102;2023-02-03T06:11:32;5.18;;;1.10;;
32445;SDS011;18899;50.748;7.102;2023-02-03T06:13:59;10.43;;;1.85;;
32445;SDS011;18899;50.748;7.102;2023-02-03T06:16:26;4.30;;;0.93;;
32445;SDS011;18899;50.748;7.102;2023-02-03T06:18:53;8.80;;;1.42;;
32445;SDS011;18899;50.748;7.102;2023-02-03T06:21:19;6.38;;;1.40;;
32445;SDS011;18899;50.748;7.102;2023-02-03T06:23:46;8.65;;;1.83;;
32445;SDS011;18899;50.748;7.102;2023-02-03T06:26:12;7.45;;;0.90;;
32445;SDS011;18899;50.748;7.102;2023-02-03T06:28:38;3.95;;;1.15;;
32445;SDS011;18899;50.748;7.102;2023-02-03T06:31:04;4.50;;;1.35;;
32445;SDS011;18899;50.748;7.102;2023-02-03T06:33:30;5.30;;;1.60;;
32445;SDS011;18899;50.748;7.102;2023-02-03T06:35:56;4.07;;;1.83;;
32445;SDS011;18899;50.748;7.102;2023-02-03T06:38:21;3.53;;;1.05;;
32445;SDS011;18899;50.748;7.102;2023-02-03T06:40:47;4.95;;;1.10;;
32445;SDS011;18899;50.748;7.102;2023-02-03T06:43:13;6.15;;;1.23;;
32445;SDS011;18899;50.748;7.102;2023-02-03T06:45:39;2.97;;;1.10;;
32445;SDS011;18899;50.748;7.102;2023-02-03T06:48:05;5.65;;;1.55;;
32445;SDS011;18899;50.748;7.102;2023-02-03T06:50:31;10.02;;;1.20;;
32445;SDS011;18899;50.748;7.102;2023-02-03T06:52:57;6.25;;;1.38;;
32445;SDS011;18899;50.748;7.102;2023-02-03T06:55:23;8.65;;;1.17;;
32445;SDS011;18899;50.748;7.102;2023-02-03T06:57:48;6.40;;;1.30;;
32445;SDS011;18899;50.748;7.102;2023-02-03T07:00:17;6.88;;;1.13;;
32445;SDS011;18899;50.748;7.102;2023-02-03T07:02:43;6.20;;;1.58;;
32445;SDS011;18899;50.748;7.102;2023-02-03T07:05:09;4.38;;;1.20;;
32445;SDS011;18899;50.748;7.102;2023-02-03T07:07:35;2.95;;;1.05;;
32445;SDS011;18899;50.748;7.102;2023-02-03T07:10:02;5.47;;;1.70;;
32445;SDS011;18899;50.748;7.102;2023-02-03T07:12:29;6.82;;;1.23;;
32445;SDS011;18899;50.748;7.102;2023-02-03T07:14:55;9.27;;;1.30;;
32445;SDS011;18899;50.748;7.102;2023-02-03T07:17:21;5.78;;;1.00;;
32445;SDS011;18899;50.748;7.102;2023-02-03T07:19:46;6.28;;;1.27;;
32445;SDS011;18899;50.748;7.102;2023-02-03T07:22:12;4.30;;;1.00;;
32445;SDS011;18899;50.748;7.102;2023-02-03T07:24:38;6.18;;;1.08;;
32445;SDS011;18899;50.748;7.102;2023-02-03T07:27:03;5.10;;;0.90;;
32445;SDS011;18899;50.748;7.102;2023-02-03T07:29:29;2.75;;;1.10;;
32445;SDS011;18899;50.748;7.102;2023-02-03T07:31:54;5.85;;;1.45;;
32445;SDS011;18899;50.748;7.102;2023-02-03T07:34:20;7.55;;;1.50;;
32445;SDS011;18899;50.748;7.102;2023-02-03T07:36:45;4.68;;;1.25;;
32445;SDS011;18899;50.748;7.102;2023-02-03T07:39:11;2.92;;;1.02;;
32445;SDS011;18899;50.748;7.102;2023-02-03T07:41:36;4.35;;;1.27;;
32445;SDS011;18899;50.748;7.102;2023-02-03T07:44:02;4.30;;;1.00;;
32445;SDS011;18899;50.748;7.102;2023-02-03T07:46:28;4.32;;;1.15;;
32445;SDS011;18899;50.748;7.102;2023-02-03T07:48:53;3.45;;;1.10;;
32445;SDS011;18899;50.748;7.102;2023-02-03T07:51:19;4.85;;;1.27;;
32445;SDS011;18899;50.748;7.102;2023-02-03T07:53:44;3.85;;;0.98;;
32445;SDS011;18899;50.748;7.102;2023-02-03T07:56:10;2.83;;;0.82;;
32445;SDS011;18899;50.748;7.102;2023-02-03T07:58:36;5.82;;;1.10;;
32445;SDS011;18899;50.748;7.102;2023-02-03T08:01:08;6.30;;;1.65;;
32445;SDS011;18899;50.748;7.102;2023-02-03T08:03:35;7.22;;;1.38;;
32445;SDS011;18899;50.748;7.102;2023-02-03T08:06:00;7.43;;;1.27;;
32445;SDS011;18899;50.748;7.102;2023-02-03T08:08:26;2.92;;;1.05;;
32445;SDS011;18899;50.748;7.102;2023-02-03T08:10:54;6.35;;;1.13;;
32445;SDS011;18899;50.748;7.102;2023-02-03T08:13:20;4.38;;;0.90;;
32445;SDS011;18899;50.748;7.102;2023-02-03T08:15:46;6.65;;;1.10;;
32445;SDS011;18899;50.748;7.102;2023-02-03T08:18:11;4.15;;;0.73;;
32445;SDS011;18899;50.748;7.102;2023-02-03T08:20:37;5.10;;;1.13;;
32445;SDS011;18899;50.748;7.102;2023-02-03T08:23:03;5.00;;;1.17;;
32445;SDS011;18899;50.748;7.102;2023-02-03T08:25:28;11.15;;;1.30;;
32445;SDS011;18899;50.748;7.102;2023-02-03T08:27:54;5.75;;;1.08;;
32445;SDS011;18899;50.748;7.102;2023-02-03T08:30:20;2.95;;;0.80;;
32445;SDS011;18899;50.748;7.102;2023-02-03T08:32:46;5.35;;;1.08;;
32445;SDS011;18899;50.748;7.102;2023-02-03T08:35:12;4.20;;;1.02;;
32445;SDS011;18899;50.748;7.102;2023-02-03T08:37:38;4.22;;;1.10;;
32445;SDS011;18899;50.748;7.102;2023-02-03T08:40:04;11.05;;;0.95;;
32445;SDS011;18899;50.748;7.102;2023-02-03T08:42:30;7.20;;;1.17;;
32445;SDS011;18899;50.748;7.102;2023-02-03T08:44:56;2.83;;;1.02;;
32445;SDS011;18899;50.748;7.102;2023-02-03T08:47:21;6.05;;;1.00;;
32445;SDS011;18899;50.748;7.102;2023-02-03T08:49:47;2.25;;;0.85;;
32445;SDS011;18899;50.748;7.102;2023-02-03T08:52:13;3.28;;;0.90;;
32445;SDS011;18899;50.748;7.102;2023-02-03T08:54:39;5.07;;;1.20;;
32445;SDS011;18899;50.748;7.102;2023-02-03T08:57:04;5.30;;;1.10;;
32445;SDS011;18899;50.748;7.102;2023-02-03T08:59:30;6.13;;;1.30;;
32445;SDS011;18899;50.748;7.102;2023-02-03T09:01:59;2.88;;;0.90;;
32445;SDS011;18899;50.748;7.102;2023-02-03T09:04:26;3.80;;;0.77;;
32445;SDS011;18899;50.748;7.102;2023-02-03T09:06:52;4.65;;;1.05;;
32445;SDS011;18899;50.748;7.102;2023-02-03T09:09:18;6.63;;;1.10;;
32445;SDS011;18899;50.748;7.102;2023-02-03T09:11:44;5.72;;;0.90;;
32445;SDS011;18899;50.748;7.102;2023-02-03T09:14:09;9.13;;;1.08;;
32445;SDS011;18899;50.748;7.102;2023-02-03T09:16:35;4.40;;;1.13;;
32445;SDS011;18899;50.748;7.102;2023-02-03T09:19:00;6.22;;;0.88;;
32445;SDS011;18899;50.748;7.102;2023-02-03T09:21:26;8.40;;;0.95;;
32445;SDS011;18899;50.748;7.102;2023-02-03T09:23:52;5.97;;;1.33;;
32445;SDS011;18899;50.748;7.102;2023-02-03T09:26:17;3.13;;;0.90;;
32445;SDS011;18899;50.748;7.102;2023-02-03T09:28:43;2.40;;;0.90;;
32445;SDS011;18899;50.748;7.102;2023-02-03T09:31:10;5.00;;;0.95;;
32445;SDS011;18899;50.748;7.102;2023-02-03T09:33:38;4.88;;;0.73;;
32445;SDS011;18899;50.748;7.102;2023-02-03T09:36:05;8.93;;;1.13;;
32445;SDS011;18899;50.748;7.102;2023-02-03T09:38:31;3.22;;;0.85;;
32445;SDS011;18899;50.748;7.102;2023-02-03T09:41:01;4.47;;;0.90;;
32445;SDS011;18899;50.748;7.102;2023-02-03T09:46:40;3.70;;;1.30;;
32445;SDS011;18899;50.748;7.102;2023-02-03T09:51:42;4.53;;;1.20;;
32445;SDS011;18899;50.748;7.102;2023-02-03T09:57:11;6.78;;;1.23;;
32445;SDS011;18899;50.748;7.102;2023-02-03T09:59:45;4.60;;;0.93;;
32445;SDS011;18899;50.748;7.102;2023-02-03T10:02:32;3.33;;;1.23;;
32445;SDS011;18899;50.748;7.102;2023-02-03T10:05:33;8.05;;;1.75;;
32445;SDS011;18899;50.748;7.102;2023-02-03T10:13:46;9.88;;;1.35;;
32445;SDS011;18899;50.748;7.102;2023-02-03T10:16:26;4.35;;;1.10;;
32445;SDS011;18899;50.748;7.102;2023-02-03T10:18:55;6.85;;;1.30;;
32445;SDS011;18899;50.748;7.102;2023-02-03T10:21:37;7.05;;;1.40;;
32445;SDS011;18899;50.748;7.102;2023-02-03T10:24:13;4.85;;;1.40;;
32445;SDS011;18899;50.748;7.102;2023-02-03T10:26:43;6.65;;;1.20;;
32445;SDS011;18899;50.748;7.102;2023-02-03T10:29:22;3.33;;;0.85;;
32445;SDS011;18899;50.748;7.102;2023-02-03T10:31:53;6.03;;;2.15;;
32445;SDS011;18899;50.748;7.102;2023-02-03T10:34:19;6.13;;;1.00;;
32445;SDS011;18899;50.748;7.102;2023-02-03T10:37:05;2.53;;;1.27;;
32445;SDS011;18899;50.748;7.102;2023-02-03T10:39:42;6.05;;;1.92;;
32445;SDS011;18899;50.748;7.102;2023-02-03T10:42:13;2.72;;;1.05;;
32445;SDS011;18899;50.748;7.102;2023-02-03T10:49:42;5.60;;;1.17;;
32445;SDS011;18899;50.748;7.102;2023-02-03T10:52:09;3.05;;;0.98;;
32445;SDS011;18899;50.748;7.102;2023-02-03T10:54:58;4.38;;;1.45;;
32445;SDS011;18899;50.748;7.102;2023-02-03T10:57:44;4.68;;;0.90;;
32445;SDS011;18899;50.748;7.102;2023-02-03T11:00:29;3.60;;;1.40;;
32445;SDS011;18899;50.748;7.102;2023-02-03T11:02:58;6.72;;;1.10;;
32445;SDS011;18899;50.748;7.102;2023-02-03T11:05:39;4.03;;;1.05;;
32445;SDS011;18899;50.748;7.102;2023-02-03T11:08:09;2.65;;;0.90;;
32445;SDS011;18899;50.748;7.102;2023-02-03T11:10:41;3.03;;;1.10;;
32445;SDS011;18899;50.748;7.102;2023-02-03T11:15:52;3.03;;;1.10;;
32445;SDS011;18899;50.748;7.102;2023-02-03T11:19:10;4.03;;;1.50;;
32445;SDS011;18899;50.748;7.102;2023-02-03T11:24:10;4.40;;;0.98;;
32445;SDS011;18899;50.748;7.102;2023-02-03T11:29:30;3.95;;;0.95;;
32445;SDS011;18899;50.748;7.102;2023-02-03T11:31:59;8.30;;;1.10;;
32445;SDS011;18899;50.748;7.102;2023-02-03T11:34:32;4.13;;;1.33;;
32445;SDS011;18899;50.748;7.102;2023-02-03T11:42:31;2.20;;;1.02;;
32445;SDS011;18899;50.748;7.102;2023-02-03T12:03:59;1.80;;;1.10;;
32445;SDS011;18899;50.748;7.102;2023-02-03T12:06:53;4.68;;;1.95;;
32445;SDS011;18899;50.748;7.102;2023-02-03T12:11:59;3.42;;;1.60;;
32445;SDS011;18899;50.748;7.102;2023-02-03T12:14:48;3.42;;;1.50;;
32445;SDS011;18899;50.748;7.102;2023-02-03T12:17:42;3.60;;;1.40;;
32445;SDS011;18899;50.748;7.102;2023-02-03T12:23:29;6.22;;;1.77;;
32445;SDS011;18899;50.748;7.102;2023-02-03T12:26:17;4.47;;;1.48;;
32445;SDS011;18899;50.748;7.102;2023-02-03T12:28:51;2.80;;;1.70;;
32445;SDS011;18899;50.748;7.102;2023-02-03T12:31:41;3.22;;;1.77;;
32445;SDS011;18899;50.748;7.102;2023-02-03T12:34:21;4.28;;;1.98;;
32445;SDS011;18899;50.748;7.102;2023-02-03T12:37:04;4.05;;;2.20;;
32445;SDS011;18899;50.748;7.102;2023-02-03T12:39:44;4.32;;;2.10;;
32445;SDS011;18899;50.748;7.102;2023-02-03T12:42:31;5.10;;;2.20;;
32445;SDS011;18899;50.748;7.102;2023-02-03T12:47:51;5.30;;;2.28;;
32445;SDS011;18899;50.748;7.102;2023-02-03T12:50:34;5.72;;;2.30;;
32445;SDS011;18899;50.748;7.102;2023-02-03T12:53:26;3.78;;;2.33;;
32445;SDS011;18899;50.748;7.102;2023-02-03T12:55:58;3.17;;;2.03;;
32445;SDS011;18899;50.748;7.102;2023-02-03T13:01:48;7.88;;;2.80;;
32445;SDS011;18899;50.748;7.102;2023-02-03T13:04:37;3.88;;;2.22;;
32445;SDS011;18899;50.748;7.102;2023-02-03T13:07:32;5.85;;;2.72;;
32445;SDS011;18899;50.748;7.102;2023-02-03T13:13:07;7.28;;;2.90;;
32445;SDS011;18899;50.748;7.102;2023-02-03T13:15:44;8.48;;;2.92;;
32445;SDS011;18899;50.748;7.102;2023-02-03T13:18:30;10.43;;;3.03;;
32445;SDS011;18899;50.748;7.102;2023-02-03T13:21:00;8.65;;;3.38;;
32445;SDS011;18899;50.748;7.102;2023-02-03T13:23:26;9.15;;;3.45;;
32445;SDS011;18899;50.748;7.102;2023-02-03T13:40:03;11.98;;;4.10;;
32445;SDS011;18899;50.748;7.102;2023-02-03T13:42:40;10.60;;;4.65;;
32445;SDS011;18899;50.748;7.102;2023-02-03T13:47:50;9.02;;;4.22;;
32445;SDS011;18899;50.748;7.102;2023-02-03T13:50:26;6.25;;;3.90;;
32445;SDS011;18899;50.748;7.102;2023-02-03T13:53:00;9.48;;;4.60;;
32445;SDS011;18899;50.748;7.102;2023-02-03T13:55:34;9.75;;;4.47;;
32445;SDS011;18899;50.748;7.102;2023-02-03T13:58:03;9.35;;;4.22;;
32445;SDS011;18899;50.748;7.102;2023-02-03T14:03:15;8.82;;;4.68;;
32445;SDS011;18899;50.748;7.102;2023-02-03T14:05:47;8.55;;;4.25;;
32445;SDS011;18899;50.748;7.102;2023-02-03T14:24:12;12.70;;;5.82;;
32445;SDS011;18899;50.748;7.102;2023-02-03T14:26:40;14.05;;;6.55;;
32445;SDS011;18899;50.748;7.102;2023-02-03T14:29:09;14.77;;;5.88;;
32445;SDS011;18899;50.748;7.102;2023-02-03T14:31:52;11.05;;;6.10;;
32445;SDS011;18899;50.748;7.102;2023-02-03T14:37:22;13.55;;;6.20;;
32445;SDS011;18899;50.748;7.102;2023-02-03T14:42:52;13.85;;;6.45;;
32445;SDS011;18899;50.748;7.102;2023-02-03T14:45:54;11.00;;;5.78;;
32445;SDS011;18899;50.748;7.102;2023-02-03T14:53:59;9.40;;;6.18;;
32445;SDS011;18899;50.748;7.102;2023-02-03T15:00:04;19.13;;;6.10;;
32445;SDS011;18899;50.748;7.102;2023-02-03T15:02:34;12.80;;;6.28;;
32445;SDS011;18899;50.748;7.102;2023-02-03T15:07:56;13.48;;;6.55;;
32445;SDS011;18899;50.748;7.102;2023-02-03T15:10:24;16.13;;;6.65;;
32445;SDS011;18899;50.748;7.102;2023-02-03T15:12:55;12.18;;;6.50;;
32445;SDS011;18899;50.748;7.102;2023-02-03T15:15:28;13.57;;;6.70;;
32445;SDS011;18899;50.748;7.102;2023-02-03T15:17:56;12.57;;;7.07;;
32445;SDS011;18899;50.748;7.102;2023-02-03T15:20:29;15.57;;;7.22;;
32445;SDS011;18899;50.748;7.102;2023-02-03T15:22:58;15.15;;;7.25;;
32445;SDS011;18899;50.748;7.102;2023-02-03T15:25:24;13.60;;;6.28;;
32445;SDS011;18899;50.748;7.102;2023-02-03T15:27:53;9.88;;;6.25;;
32445;SDS011;18899;50.748;7.102;2023-02-03T15:30:25;11.60;;;6.53;;
32445;SDS011;18899;50.748;7.102;2023-02-03T15:33:10;8.70;;;6.25;;
32445;SDS011;18899;50.748;7.102;2023-02-03T15:35:39;13.90;;;6.10;;
32445;SDS011;18899;50.748;7.102;2023-02-03T15:38:06;11.98;;;6.50;;
32445;SDS011;18899;50.748;7.102;2023-02-03T15:40:46;11.05;;;6.30;;
32445;SDS011;18899;50.748;7.102;2023-02-03T15:43:24;13.52;;;5.40;;
32445;SDS011;18899;50.748;7.102;2023-02-03T15:49:12;9.98;;;5.25;;
32445;SDS011;18899;50.748;7.102;2023-02-03T15:54:26;12.35;;;5.35;;
32445;SDS011;18899;50.748;7.102;2023-02-03T15:57:26;17.27;;;5.60;;
32445;SDS011;18899;50.748;7.102;2023-02-03T15:59:54;10.27;;;5.32;;
32445;SDS011;18899;50.748;7.102;2023-02-03T16:04:55;12.63;;;4.78;;
32445;SDS011;18899;50.748;7.102;2023-02-03T16:09:53;10.60;;;4.82;;
32445;SDS011;18899;50.748;7.102;2023-02-03T16:12:24;9.45;;;4.93;;
32445;SDS011;18899;50.748;7.102;2023-02-03T16:15:00;8.57;;;5.28;;
32445;SDS011;18899;50.748;7.102;2023-02-03T16:17:27;14.00;;;5.53;;
32445;SDS011;18899;50.748;7.102;2023-02-03T16:22:40;10.30;;;4.80;;
32445;SDS011;18899;50.748;7.102;2023-02-03T16:25:24;11.23;;;4.80;;
32445;SDS011;18899;50.748;7.102;2023-02-03T16:28:11;9.88;;;5.53;;
32445;SDS011;18899;50.748;7.102;2023-02-03T16:31:09;10.77;;;5.43;;
32445;SDS011;18899;50.748;7.102;2023-02-03T16:33:54;13.02;;;5.95;;
32445;SDS011;18899;50.748;7.102;2023-02-03T16:36:39;11.73;;;5.47;;
32445;SDS011;18899;50.748;7.102;2023-02-03T16:39:25;13.45;;;5.50;;
32445;SDS011;18899;50.748;7.102;2023-02-03T16:42:19;10.05;;;6.30;;
32445;SDS011;18899;50.748;7.102;2023-02-03T16:45:16;9.98;;;5.88;;
32445;SDS011;18899;50.748;7.102;2023-02-03T16:48:01;11.15;;;6.07;;
32445;SDS011;18899;50.748;7.102;2023-02-03T16:50:46;18.73;;;7.22;;
32445;SDS011;18899;50.748;7.102;2023-02-03T16:53:19;14.85;;;7.00;;
32445;SDS011;18899;50.748;7.102;2023-02-03T16:55:53;15.65;;;7.82;;
32445;SDS011;18899;50.748;7.102;2023-02-03T16:58:20;14.70;;;7.82;;
32445;SDS011;18899;50.748;7.102;2023-02-03T17:00:46;16.30;;;8.32;;
32445;SDS011;18899;50.748;7.102;2023-02-03T17:03:14;12.93;;;7.82;;
32445;SDS011;18899;50.748;7.102;2023-02-03T17:05:43;18.42;;;8.63;;
32445;SDS011;18899;50.748;7.102;2023-02-03T17:08:10;15.73;;;8.30;;
32445;SDS011;18899;50.748;7.102;2023-02-03T17:10:37;15.05;;;9.05;;
32445;SDS011;18899;50.748;7.102;2023-02-03T17:13:04;24.95;;;9.77;;
32445;SDS011;18899;50.748;7.102;2023-02-03T17:15:31;17.92;;;8.93;;
32445;SDS011;18899;50.748;7.102;2023-02-03T17:17:57;16.15;;;8.82;;
32445;SDS011;18899;50.748;7.102;2023-02-03T17:20:23;19.75;;;9.75;;
32445;SDS011;18899;50.748;7.102;2023-02-03T17:22:48;17.55;;;9.65;;
32445;SDS011;18899;50.748;7.102;2023-02-03T17:25:18;15.80;;;9.50;;
32445;SDS011;18899;50.748;7.102;2023-02-03T17:27:44;23.80;;;9.98;;
32445;SDS011;18899;50.748;7.102;2023-02-03T17:30:10;19.35;;;10.25;;
32445;SDS011;18899;50.748;7.102;2023-02-03T17:32:36;17.70;;;8.57;;
32445;SDS011;18899;50.748;7.102;2023-02-03T17:35:01;20.02;;;8.68;;
32445;SDS011;18899;50.748;7.102;2023-02-03T17:37:27;19.00;;;7.15;;
32445;SDS011;18899;50.748;7.102;2023-02-03T17:39:55;15.60;;;6.75;;
32445;SDS011;18899;50.748;7.102;2023-02-03T17:42:21;21.23;;;5.63;;
32445;SDS011;18899;50.748;7.102;2023-02-03T17:44:47;15.27;;;4.93;;